Nearby METAR Reports

 

KSJC - San Jose, California, USA
Distance from station: NE 14km
Updated: 22/04/2024 05:53
Few Clouds
Few Clouds
 Wind from NW
Wind: NW 15 km/h
Temperature: 20°C
Dew Point: 13°C
Humidity: 64%
Barometer: 1012.5 hPa
Clouds: Few Clouds
Visibility: 16 km
Cloud details: Few Clouds 2896 m
2024/04/22 02:53 KSJC 220253Z 31008KT 10SM FEW095 20/13 A2990 RMK AO2 SLP123 T02000128 55005
KNUQ - Moffett Nas/Mtn, California, USA
Distance from station: N 14km
Updated: 22/04/2024 05:55
Clear
Clear
 Wind from NW
Wind: NW 9 km/h
Temperature: 18°C
Dew Point: 11°C
Humidity: 64%
Barometer: 1012.5 hPa
Clouds: Clear
Visibility: 14 km
2024/04/22 02:55 KNUQ 220255Z AUTO 31005KT 9SM CLR 18/11 A2990 RMK AO2
 
KPAO - Palo Alto, California, USA
Distance from station: NNW 23km
Updated: 22/04/2024 05:47
Clear
Clear
 Wind from NNW
Wind: NNW 19 km/h
Temperature: 16°C
Dew Point: 12°C
Humidity: 77%
Barometer: 1012.5 hPa
Clouds: Clear
Visibility: 16 km
2024/04/22 02:47 KPAO 220247Z 33010KT 10SM SKC 16/12 A2990
KRHV - San Jose/Reid, California, USA
Distance from station: ENE 19km
Updated: 22/04/2024 05:47
Clear
Clear
 Wind from WNW
Wind: WNW 13 km/h
Temperature: 22°C
Dew Point: 13°C
Humidity: 57%
Barometer: 1012.5 hPa
Clouds: Clear
Visibility: 16 km
2024/04/22 02:47 KRHV 220247Z 30007KT 10SM SKC 22/13 A2990
 
KOAK - Oakland, California, USA
Distance from station: NNW 50km
Updated: 22/04/2024 05:53
Mostly cloudy
Mostly cloudy
 Wind from WNW
Wind: WNW 15 km/h
Temperature: 17°C
Dew Point: 12°C
Humidity: 73%
Barometer: 1012.9 hPa
Clouds: Mostly cloudy
Visibility: 16 km
Cloud details: Few Clouds 2134 m
Mostly cloudy 6096 m
2024/04/22 02:53 KOAK 220253Z 29008KT 10SM FEW070 BKN200 17/12 A2991 RMK AO2 SLP128 T01720122 56009
KSQL - San Carlos Airpo, California, USA
Distance from station: NW 34km
Updated: 22/04/2024 05:14
Clear
Clear
 Wind from NW
Wind: NW 15 km/h
Temperature: 20°C
Dew Point: 10°C
Humidity: 53%
Barometer: 1012.5 hPa
Clouds: Clear
Visibility: 16 km
2024/04/22 02:14 KSQL 220214Z 31008KT 10SM CLR 20/10 A2990
 
KSFO - San Francisco, California, USA
Distance from station: NW 49km
Updated: 22/04/2024 05:56
Partly cloudy
Partly cloudy
 Wind from WNW
Wind: WNW 28 km/h
Temperature: 16°C
Dew Point: 10°C
Humidity: 68%
Barometer: 1012.5 hPa
Clouds: Partly cloudy
Visibility: 16 km
Cloud details: Few Clouds 183 m
Partly cloudy 6096 m
2024/04/22 02:56 KSFO 220256Z 29015KT 10SM FEW006 SCT200 16/10 A2990 RMK AO2 SLP124 T01560100 56010
KE16 - San Martin, California, USA
Distance from station: ESE 43km
Updated: 22/04/2024 05:55
Clear
Clear
 Wind from SSE
Wind: SSE 13 km/h
Temperature: 22°C
Dew Point: 13°C
Humidity: 57%
Barometer: 1012.9 hPa
Clouds: Clear
Visibility: 14 km
2024/04/22 02:55 KE16 220255Z AUTO 15007KT 9SM CLR 22/13 A2991 RMK AO2 PWINO PNO
 
KWVI - Watsonville, California, USA
Distance from station: SSE 44km
Updated: 22/04/2024 05:53
Clear
Clear
 Wind from SSE
Wind: SSE 11 km/h
Temperature: 13°C
Dew Point: 11°C
Humidity: 88%
Barometer: 1013.5 hPa
Clouds: Clear
Visibility: 14 km
2024/04/22 02:53 KWVI 220253Z AUTO 16006KT 9SM CLR 13/11 A2993 RMK AO2 SLP136 T01330111 55001
KHAF - Half Moon Bay, California, USA
Distance from station: WNW 50km
Updated: 22/04/2024 05:55
Mist, Clear
Mist, Clear
 Wind from NW
Wind: NW 9 km/h
Temperature: 12°C
Dew Point: 11°C
Humidity: 94%
Barometer: 1013.9 hPa
Summary: Mist
Clouds: Clear
Visibility: 5 km
2024/04/22 02:55 KHAF 220255Z AUTO 31005KT 3SM BR CLR 12/11 A2994 RMK AO2
 
KHWD - Hayward, California, USA
Distance from station: N 44km
Updated: 22/04/2024 05:54
Clear
Clear
 Wind from W
Wind: W 11 km/h
Temperature: 18°C
Dew Point: 12°C
Humidity: 68%
Barometer: 1012.5 hPa
Clouds: Clear
Visibility: 16 km
2024/04/22 02:54 KHWD 220254Z 28006KT 10SM CLR 18/12 A2990 RMK AO2 SLP132 T01830122 56008
KLVK - Livermore, California, USA
Distance from station: NNE 51km
Updated: 22/04/2024 05:53
Clear
Clear
 Wind from W
Wind: W 9 km/h
Temperature: 22°C
Dew Point: 12°C
Humidity: 53%
Barometer: 1011.9 hPa
Clouds: Clear
Visibility: 16 km
2024/04/22 02:53 KLVK 220253Z 26005KT 10SM CLR 22/12 A2988 RMK AO2 SLP116 T02220122 55008